Time;durP1;ratioP1;P1;durP2;ratioP2;P2;SDS_P1;SDS_P2;PMS_P1;PMS_P2;Temp;Humidity;BMP_temperature;BMP_pressure;BME280_temperature;BME280_humidity;BME280_pressure;Samples;Min_cycle;Max_cycle;Signal;HPM_P1;HPM_P2
2022/12/23 00:01:35;;;;;;;53.23;20.60;;;;;;;-0.74;80.92;100284.33;124184;1099;104245;-78
2022/12/23 00:04:06;;;;;;;51.03;21.77;;;;;;;-0.74;81.50;100279.17;123660;1099;104623;-78
2022/12/23 00:06:37;;;;;;;54.37;21.80;;;;;;;-0.77;80.98;100284.09;124028;1099;104392;-78
2022/12/23 00:09:08;;;;;;;52.60;22.27;;;;;;;-0.80;80.48;100281.28;123912;1099;104265;-78
2022/12/23 00:15:04;;;;;;;51.10;20.47;;;;;;;-0.84;81.34;100274.12;123862;1099;104248;-78
2022/12/23 00:17:21;;;;;;;56.60;21.73;;;;;;;-0.91;81.39;100264.11;123835;1099;104626;-78
2022/12/23 00:19:52;;;;;;;54.07;21.90;;;;;;;-0.92;80.80;100267.45;123541;1102;104370;-78
2022/12/23 00:23:03;;;;;;;57.23;22.80;;;;;;;-0.91;80.86;100269.26;123861;1099;104344;-78
2022/12/23 00:25:15;;;;;;;61.20;22.90;;;;;;;-0.86;81.60;100270.50;123983;1099;104320;-78
2022/12/23 00:28:00;;;;;;;56.97;23.50;;;;;;;-0.84;81.39;100266.39;123863;1099;104316;-78
2022/12/23 00:30:31;;;;;;;52.33;21.40;;;;;;;-0.82;81.53;100257.09;123932;1099;104277;-78
2022/12/23 00:33:02;;;;;;;55.53;22.13;;;;;;;-0.79;81.32;100254.75;123931;1099;104386;-78
2022/12/23 00:35:33;;;;;;;54.60;21.93;;;;;;;-0.77;81.22;100263.48;123837;1099;104277;-77
2022/12/23 00:38:05;;;;;;;53.63;21.60;;;;;;;-0.79;80.90;100252.17;123510;1099;104387;-78
2022/12/23 00:43:25;;;;;;;60.20;22.83;;;;;;;-0.80;82.08;100247.78;123537;1099;104427;-77
2022/12/23 00:45:56;;;;;;;55.03;22.57;;;;;;;-0.79;81.51;100241.86;123551;1099;104182;-78
2022/12/23 00:51:16;;;;;;;62.15;24.40;;;;;;;-0.75;81.63;100243.91;123937;1099;104350;-78
2022/12/23 00:53:47;;;;;;;57.47;23.07;;;;;;;-0.74;82.08;100242.22;123953;1099;104200;-78
2022/12/23 00:56:19;;;;;;;60.00;24.00;;;;;;;-0.74;80.86;100248.26;123744;1098;104176;-77
2022/12/23 00:58:50;;;;;;;52.60;21.07;;;;;;;-0.73;80.82;100260.38;124089;1099;104300;-77
2022/12/23 01:07:00;;;;;;;57.93;22.43;;;;;;;-0.71;81.64;100255.34;123891;1099;104222;-78
2022/12/23 01:09:32;;;;;;;56.87;21.80;;;;;;;-0.68;81.37;100252.11;123945;1099;104270;-78
2022/12/23 01:12:03;;;;;;;57.53;22.10;;;;;;;-0.69;81.85;100243.45;124049;1099;104357;-78
2022/12/23 01:14:35;;;;;;;57.77;22.20;;;;;;;-0.69;81.52;100245.14;124094;1099;104280;-79
2022/12/23 01:17:07;;;;;;;60.57;23.37;;;;;;;-0.72;81.28;100243.22;124033;1099;104294;-78
2022/12/23 01:19:39;;;;;;;56.90;22.37;;;;;;;-0.75;81.79;100249.06;124056;1098;104383;-77
2022/12/23 01:22:10;;;;;;;55.07;23.23;;;;;;;-0.75;82.12;100251.64;124039;1099;104369;-78
2022/12/23 01:24:42;;;;;;;54.00;22.00;;;;;;;-0.76;81.99;100248.94;123975;1099;104223;-78
2022/12/23 01:27:13;;;;;;;59.75;23.55;;;;;;;-0.77;82.09;100239.41;124005;1099;104245;-78
2022/12/23 01:29:45;;;;;;;54.57;21.10;;;;;;;-0.79;81.95;100246.12;124060;1099;104245;-78
2022/12/23 01:32:16;;;;;;;54.67;22.37;;;;;;;-0.81;81.28;100242.52;124026;1099;104222;-77
2022/12/23 01:34:48;;;;;;;55.70;22.30;;;;;;;-0.81;81.71;100243.44;123999;1099;104278;-77
2022/12/23 01:37:19;;;;;;;57.27;23.50;;;;;;;-0.83;81.20;100234.67;123990;1099;104438;-78
2022/12/23 01:39:50;;;;;;;54.57;22.53;;;;;;;-0.84;81.09;100237.13;123788;1099;104271;-78
2022/12/23 01:45:16;;;;;;;53.47;21.07;;;;;;;-0.87;82.12;100239.47;124001;1099;104226;-78
2022/12/23 01:47:52;;;;;;;58.80;23.63;;;;;;;-0.87;81.28;100236.89;124071;1099;104312;-78
2022/12/23 01:50:27;;;;;;;52.40;22.50;;;;;;;-0.86;82.05;100234.44;124075;1099;104382;-78
2022/12/23 01:53:04;;;;;;;58.80;22.43;;;;;;;-0.85;81.91;100235.35;123957;1099;104328;-79
2022/12/23 01:55:44;;;;;;;56.43;23.13;;;;;;;-0.88;81.76;100229.97;124042;1099;104225;-78
2022/12/23 01:58:21;;;;;;;58.20;23.23;;;;;;;-0.91;81.88;100235.77;123723;1098;104284;-78
2022/12/23 02:03:43;;;;;;;58.90;23.47;;;;;;;-0.89;81.89;100243.61;123600;1099;104347;-78
2022/12/23 02:09:19;;;;;;;55.43;22.00;;;;;;;-0.89;81.94;100248.77;124078;1099;104255;-78
2022/12/23 02:12:32;;;;;;;58.33;23.80;;;;;;;-0.90;82.36;100237.58;123993;1099;104348;-78
2022/12/23 02:18:31;;;;;;;58.87;23.07;;;;;;;-0.88;82.09;100235.12;123804;1099;104259;-78
2022/12/23 02:21:24;;;;;;;55.87;21.67;;;;;;;-0.89;81.54;100228.16;123946;1098;104348;-78
2022/12/23 02:24:14;;;;;;;52.57;21.60;;;;;;;-0.89;82.45;100233.31;124070;1099;104348;-77
2022/12/23 02:27:09;;;;;;;54.90;21.13;;;;;;;-0.91;82.02;100235.77;124011;1099;104354;-77
2022/12/23 02:30:08;;;;;;;54.80;21.73;;;;;;;-0.92;82.20;100226.23;123436;1099;104319;-78
2022/12/23 02:32:53;;;;;;;54.60;22.37;;;;;;;-0.98;82.57;100236.06;123626;1099;104315;-79
2022/12/23 02:35:30;;;;;;;61.23;23.50;;;;;;;-0.99;81.96;100231.72;124140;1099;104386;-77
2022/12/23 02:38:08;;;;;;;59.40;23.85;;;;;;;-0.99;82.30;100242.02;124163;1099;105635;-77
2022/12/23 02:40:44;;;;;;;56.67;21.23;;;;;;;-0.97;82.10;100240.45;124128;1099;104322;-78
2022/12/23 02:43:25;;;;;;;59.03;22.23;;;;;;;-0.96;82.08;100252.56;124106;1099;104406;-77
2022/12/23 02:46:00;;;;;;;56.57;23.30;;;;;;;-0.94;82.62;100245.84;123975;1099;104376;-77
2022/12/23 02:48:35;;;;;;;56.23;23.10;;;;;;;-0.89;81.71;100243.61;123951;1099;104229;-77
2022/12/23 02:51:09;;;;;;;56.73;23.60;;;;;;;-0.88;82.58;100251.47;124037;1099;104243;-78
2022/12/23 02:53:44;;;;;;;48.95;19.98;;;;;;;-0.89;82.19;100233.31;123945;1099;104281;-78
2022/12/23 02:56:18;;;;;;;53.17;22.70;;;;;;;-0.88;81.88;100242.84;123984;1099;104274;-77
2022/12/23 02:58:54;;;;;;;59.42;23.83;;;;;;;-0.86;82.05;100241.27;123929;1099;104194;-77
2022/12/23 03:01:27;;;;;;;50.03;21.40;;;;;;;-0.84;82.74;100235.47;123934;1099;104280;-76
2022/12/23 03:03:59;;;;;;;58.70;22.67;;;;;;;-0.84;82.25;100239.70;124076;1099;104242;-77
2022/12/23 03:06:33;;;;;;;60.23;23.97;;;;;;;-0.80;82.11;100236.59;123848;1099;104245;-77
2022/12/23 03:09:04;;;;;;;56.48;22.80;;;;;;;-0.80;83.00;100229.75;124052;1099;104357;-77
2022/12/23 03:11:45;;;;;;;55.47;22.43;;;;;;;-0.79;82.36;100238.41;123997;1099;104322;-78
2022/12/23 03:14:43;;;;;;;58.87;22.80;;;;;;;-0.84;82.49;100235.47;123814;1099;104392;-78
2022/12/23 03:17:29;;;;;;;60.40;23.10;;;;;;;-0.87;82.40;100227.51;123982;1099;104297;-78
2022/12/23 03:20:11;;;;;;;62.00;23.87;;;;;;;-0.89;82.80;100229.05;123907;1099;104217;-77
2022/12/23 03:22:48;;;;;;;57.40;22.97;;;;;;;-0.92;82.21;100237.45;124075;1099;104245;-77
2022/12/23 03:25:26;;;;;;;52.33;22.43;;;;;;;-0.90;82.05;100237.58;123950;1098;104418;-77
2022/12/23 03:28:06;;;;;;;53.90;22.87;;;;;;;-0.88;83.08;100238.58;123564;1099;104307;-78
2022/12/23 03:30:42;;;;;;;58.20;21.47;;;;;;;-0.87;82.53;100237.81;123477;1099;104297;-77
2022/12/23 03:33:16;;;;;;;60.33;22.87;;;;;;;-0.86;82.01;100237.02;123534;1099;104277;-77
2022/12/23 03:35:53;;;;;;;55.93;22.37;;;;;;;-0.84;83.12;100235.47;123566;1100;104258;-77
2022/12/23 03:38:25;;;;;;;56.97;22.73;;;;;;;-0.80;82.56;100240.06;123583;1099;104370;-77
2022/12/23 03:41:02;;;;;;;56.97;23.13;;;;;;;-0.77;82.55;100229.10;123579;1099;104281;-78
2022/12/23 03:43:37;;;;;;;54.47;21.47;;;;;;;-0.78;82.36;100230.79;123897;1099;104227;-78
2022/12/23 03:46:14;;;;;;;58.97;22.40;;;;;;;-0.78;82.62;100228.22;124025;1099;104299;-78
2022/12/23 03:48:48;;;;;;;52.70;21.47;;;;;;;-0.78;82.97;100230.79;124125;1099;104248;-77
2022/12/23 03:51:24;;;;;;;48.67;20.60;;;;;;;-0.78;82.52;100232.45;124031;1098;118516;-78
2022/12/23 03:53:59;;;;;;;53.93;21.73;;;;;;;-0.79;83.03;100220.37;123858;1099;104299;-77
2022/12/23 03:56:36;;;;;;;54.50;21.80;;;;;;;-0.80;82.79;100222.02;123974;1098;104277;-78
2022/12/23 03:59:12;;;;;;;54.17;22.63;;;;;;;-0.80;82.64;100211.72;124009;1099;104258;-77
2022/12/23 04:01:54;;;;;;;55.67;22.17;;;;;;;-0.79;82.72;100216.09;124026;1099;104357;-77
2022/12/23 04:04:30;;;;;;;55.43;22.73;;;;;;;-0.77;82.34;100211.06;123856;1099;104246;-77
2022/12/23 04:07:07;;;;;;;60.70;22.63;;;;;;;-0.75;82.93;100204.34;124016;1098;104275;-78
2022/12/23 04:09:40;;;;;;;59.30;23.40;;;;;;;-0.74;82.68;100206.14;123644;1099;104275;-77
2022/12/23 04:12:11;;;;;;;49.90;21.40;;;;;;;-0.74;82.89;100201.88;123982;1099;104226;-78
2022/12/23 04:14:48;;;;;;;59.37;24.87;;;;;;;-0.73;82.80;100203.69;123892;1099;104255;-77
2022/12/23 04:17:20;;;;;;;56.73;21.83;;;;;;;-0.70;82.41;100202.11;123906;1099;104222;-78
2022/12/23 04:19:52;;;;;;;55.70;22.63;;;;;;;-0.70;83.21;100204.69;123769;1099;104349;-78
2022/12/23 04:22:23;;;;;;;59.95;23.75;;;;;;;-0.71;82.71;100211.53;124086;1099;104319;-78
2022/12/23 04:24:54;;;;;;;60.90;25.03;;;;;;;-0.70;82.25;100212.42;123973;1099;104245;-77
2022/12/23 04:27:25;;;;;;;59.13;24.20;;;;;;;-0.69;82.70;100209.07;123885;1099;104226;-77
2022/12/23 04:29:57;;;;;;;58.47;24.23;;;;;;;-0.66;82.96;100217.03;123911;1099;104395;-78
2022/12/23 04:32:28;;;;;;;58.43;23.00;;;;;;;-0.66;83.16;100217.03;123858;1099;104277;-78
2022/12/23 04:34:59;;;;;;;54.13;23.30;;;;;;;-0.68;82.44;100222.07;123994;1098;104274;-78
2022/12/23 04:37:30;;;;;;;62.93;23.63;;;;;;;-0.68;82.67;100222.07;123770;1099;104278;-77
2022/12/23 04:40:02;;;;;;;54.07;22.97;;;;;;;-0.65;83.72;100230.03;123828;1099;104209;-76
2022/12/23 04:42:33;;;;;;;53.10;22.93;;;;;;;-0.64;83.17;100225.77;124020;1099;117805;-77
2022/12/23 04:45:06;;;;;;;59.20;23.43;;;;;;;-0.61;82.25;100228.58;123854;1099;104440;-78
2022/12/23 04:47:37;;;;;;;57.83;22.83;;;;;;;-0.60;82.89;100227.80;124048;1099;104224;-77
2022/12/23 04:50:13;;;;;;;55.60;22.90;;;;;;;-0.61;83.04;100221.77;123968;1099;104274;-77
2022/12/23 04:52:45;;;;;;;50.00;22.00;;;;;;;-0.60;82.93;100239.00;123860;1099;104376;-78
2022/12/23 04:55:16;;;;;;;59.53;23.97;;;;;;;-0.60;82.78;100230.38;123860;1099;104409;-78
2022/12/23 04:57:47;;;;;;;65.57;23.90;;;;;;;-0.60;82.50;100222.65;123748;1099;104252;-77
2022/12/23 05:00:20;;;;;;;58.70;23.50;;;;;;;-0.59;83.60;100224.46;123959;1099;104293;-77
2022/12/23 05:02:52;;;;;;;57.50;23.87;;;;;;;-0.57;82.65;100225.46;124215;1099;111687;-78
2022/12/23 05:05:23;;;;;;;53.70;22.15;;;;;;;-0.58;83.25;100241.70;124069;1098;104242;-78
2022/12/23 05:08:04;;;;;;;59.50;23.67;;;;;;;-0.59;82.30;100239.92;123919;1099;104217;-77
2022/12/23 05:10:35;;;;;;;59.17;22.80;;;;;;;-0.61;83.18;100256.92;124105;1099;104190;-79
2022/12/23 05:13:07;;;;;;;53.50;21.27;;;;;;;-0.62;83.26;100244.84;123659;1099;104264;-78
2022/12/23 05:15:38;;;;;;;56.87;23.27;;;;;;;-0.64;82.76;100230.92;123592;1098;104319;-76
2022/12/23 05:18:10;;;;;;;54.53;24.13;;;;;;;-0.61;83.39;100241.46;123604;1099;104246;-76
2022/12/23 05:20:41;;;;;;;52.10;22.57;;;;;;;-0.60;83.04;100236.42;123496;1099;104370;-78
2022/12/23 05:23:12;;;;;;;55.23;22.43;;;;;;;-0.56;82.59;100245.31;123430;1099;104268;-78
2022/12/23 05:25:43;;;;;;;57.03;23.63;;;;;;;-0.50;83.38;100242.27;123538;1099;104271;-78
2022/12/23 05:28:14;;;;;;;58.60;22.93;;;;;;;-0.46;83.53;100232.31;123624;1099;104277;-78
2022/12/23 05:30:46;;;;;;;55.07;22.53;;;;;;;-0.43;83.22;100227.39;123678;1099;104214;-78
2022/12/23 05:33:17;;;;;;;55.57;22.07;;;;;;;-0.39;82.91;100231.08;123524;1099;104389;-80
2022/12/23 05:35:48;;;;;;;52.97;22.63;;;;;;;-0.36;83.67;100236.47;123652;1099;104277;-79
2022/12/23 05:38:19;;;;;;;60.35;23.65;;;;;;;-0.30;83.59;100244.66;123731;1099;104229;-78
2022/12/23 05:40:51;;;;;;;53.67;22.77;;;;;;;-0.26;83.26;100223.48;123813;1099;104207;-80
2022/12/23 05:43:22;;;;;;;58.85;23.45;;;;;;;-0.22;83.18;100224.60;123884;1099;104188;-78
2022/12/23 05:45:54;;;;;;;54.30;21.80;;;;;;;-0.21;83.69;100224.72;123954;1099;104300;-78
2022/12/23 05:48:25;;;;;;;54.10;21.60;;;;;;;-0.16;83.76;100231.91;123872;1099;104224;-77
2022/12/23 05:50:56;;;;;;;58.43;23.37;;;;;;;-0.16;83.10;100237.06;123678;1099;104246;-78
2022/12/23 05:53:28;;;;;;;58.27;22.53;;;;;;;-0.16;83.24;100258.59;123942;1099;104300;-79
2022/12/23 05:55:59;;;;;;;54.10;23.10;;;;;;;-0.19;83.21;100269.59;124247;1099;104175;-80
2022/12/23 05:58:30;;;;;;;60.53;23.17;;;;;;;-0.19;82.68;100258.36;124029;1099;104306;-79
2022/12/23 06:01:03;;;;;;;53.70;21.77;;;;;;;-0.21;82.71;100249.63;124193;1099;104277;-79
2022/12/23 06:03:34;;;;;;;56.90;23.20;;;;;;;-0.19;83.32;100256.70;123842;1099;104376;-79
2022/12/23 06:06:07;;;;;;;57.07;23.10;;;;;;;-0.13;83.52;100258.81;124254;1099;104310;-79
2022/12/23 06:08:39;;;;;;;58.95;23.45;;;;;;;-0.10;83.49;100253.00;124601;1098;104255;-78
2022/12/23 06:11:11;;;;;;;57.30;24.27;;;;;;;-0.09;82.99;100259.96;124396;1099;104323;-78
2022/12/23 06:13:46;;;;;;;57.37;23.53;;;;;;;-0.06;83.26;100260.19;124419;1099;102121;-81
2022/12/23 06:16:18;;;;;;;57.83;23.20;;;;;;;-0.07;82.83;100254.11;124391;1099;104393;-78
2022/12/23 06:18:49;;;;;;;57.50;22.93;;;;;;;0.00;83.12;100268.38;124430;1099;102265;-77
2022/12/23 06:21:20;;;;;;;57.77;22.83;;;;;;;0.07;83.71;100269.72;124440;1099;104256;-78
2022/12/23 06:26:37;;;;;;;51.93;22.97;;;;;;;0.21;83.13;100276.78;124340;1099;102223;-78
2022/12/23 06:29:09;;;;;;;54.67;22.83;;;;;;;0.26;83.71;100272.84;124777;1099;104539;-76
2022/12/23 06:31:40;;;;;;;58.30;23.90;;;;;;;0.30;82.77;100277.45;124292;1099;104338;-79
2022/12/23 06:34:12;;;;;;;54.67;24.00;;;;;;;0.33;82.77;100285.42;124738;1099;104197;-80
2022/12/23 06:36:43;;;;;;;58.15;24.20;;;;;;;0.35;83.04;100301.02;124797;1099;104305;-77
2022/12/23 06:39:16;;;;;;;52.30;22.77;;;;;;;0.41;83.14;100295.42;124626;1099;104190;-78
2022/12/23 06:41:47;;;;;;;58.40;23.55;;;;;;;0.42;83.02;100298.12;124830;1099;104181;-80
2022/12/23 06:44:18;;;;;;;57.00;23.17;;;;;;;0.42;83.25;100297.20;124490;1099;104220;-77
2022/12/23 06:46:50;;;;;;;58.57;22.90;;;;;;;0.46;83.02;100299.23;125116;1099;102165;-79
2022/12/23 06:49:21;;;;;;;52.43;22.07;;;;;;;0.49;83.07;100304.61;125182;1099;104251;-76
2022/12/23 06:51:55;;;;;;;58.80;24.20;;;;;;;0.52;82.80;100297.98;125128;1099;103072;-77
2022/12/23 06:54:26;;;;;;;54.70;22.67;;;;;;;0.54;83.29;100298.98;125285;1098;102988;-77
2022/12/23 06:56:57;;;;;;;57.40;23.57;;;;;;;0.58;83.56;100297.53;124761;1099;103521;-79
2022/12/23 06:59:29;;;;;;;55.73;23.90;;;;;;;0.66;83.64;100300.67;125290;1099;103061;-78
2022/12/23 07:02:04;;;;;;;54.13;23.10;;;;;;;0.68;82.94;100304.25;125244;1098;104248;-81
2022/12/23 07:04:38;;;;;;;56.73;23.30;;;;;;;0.73;83.16;100289.08;125170;1099;104279;-77
2022/12/23 07:07:10;;;;;;;49.08;22.25;;;;;;;0.77;83.32;100280.78;124776;1099;104286;-77
2022/12/23 07:09:41;;;;;;;54.20;22.97;;;;;;;0.83;83.32;100281.21;125331;1098;104187;-79
2022/12/23 07:12:14;;;;;;;62.00;24.47;;;;;;;0.89;83.30;100279.95;125413;1099;104185;-78
2022/12/23 07:14:47;;;;;;;54.13;22.23;;;;;;;0.96;83.14;100283.85;124666;1099;104171;-77
2022/12/23 07:17:19;;;;;;;56.67;23.40;;;;;;;1.00;83.06;100288.45;125108;1099;104245;-78
2022/12/23 07:19:51;;;;;;;51.37;23.03;;;;;;;1.05;83.09;100284.50;125007;1099;104207;-77
2022/12/23 07:22:24;;;;;;;58.28;25.40;;;;;;;1.13;83.08;100281.56;125150;1099;104248;-76
2022/12/23 07:24:56;;;;;;;55.40;25.03;;;;;;;1.19;83.25;100294.92;125004;1099;104229;-76
2022/12/23 07:27:28;;;;;;;56.40;24.37;;;;;;;1.22;83.15;100293.43;124889;1099;103312;-76
2022/12/23 07:30:06;;;;;;;54.37;23.57;;;;;;;1.23;83.13;100313.33;124805;1099;104265;-77
2022/12/23 07:32:37;;;;;;;54.97;23.67;;;;;;;1.19;82.65;100295.80;124962;1099;104176;-76
2022/12/23 07:35:12;;;;;;;55.17;24.27;;;;;;;1.23;83.28;100296.91;125035;1099;102195;-77
2022/12/23 07:37:46;;;;;;;55.50;24.30;;;;;;;1.20;82.45;100292.44;124993;1099;102720;-77
2022/12/23 07:40:17;;;;;;;62.10;25.30;;;;;;;1.23;83.12;100278.81;125174;1099;104331;-77
2022/12/23 07:42:54;;;;;;;58.63;25.17;;;;;;;1.28;82.85;100277.46;124494;1099;103526;-79
2022/12/23 07:45:27;;;;;;;55.97;25.67;;;;;;;1.35;83.24;100279.66;125072;1099;104318;-77
2022/12/23 07:48:03;;;;;;;56.90;24.87;;;;;;;1.44;82.84;100274.23;125257;1099;104235;-76
2022/12/23 07:50:36;;;;;;;60.93;25.70;;;;;;;1.51;82.79;100281.63;125321;1099;102122;-78
2022/12/23 07:53:07;;;;;;;54.87;25.17;;;;;;;1.59;82.71;100276.95;125209;1099;104229;-77
2022/12/23 07:55:39;;;;;;;56.43;25.57;;;;;;;1.70;83.03;100283.77;124730;1099;104165;-76
2022/12/23 07:58:10;;;;;;;56.57;24.77;;;;;;;1.83;82.90;100280.30;124500;1102;104334;-77
2022/12/23 08:00:42;;;;;;;54.43;24.07;;;;;;;1.80;81.44;100269.75;125138;1099;102244;-77
2022/12/23 08:03:15;;;;;;;57.77;24.77;;;;;;;1.71;81.95;100279.48;124543;1102;103106;-78
2022/12/23 08:05:50;;;;;;;61.47;24.97;;;;;;;1.75;83.01;100302.19;125066;1099;104272;-77
2022/12/23 08:08:22;;;;;;;57.93;25.03;;;;;;;1.84;83.06;100288.95;125038;1099;104730;-77
2022/12/23 08:11:00;;;;;;;57.27;24.77;;;;;;;1.89;82.56;100285.89;125266;1099;101919;-78
2022/12/23 08:13:34;;;;;;;53.03;22.80;;;;;;;1.94;82.49;100278.44;124844;1099;104172;-78
2022/12/23 08:16:14;;;;;;;54.43;24.97;;;;;;;2.01;82.64;100274.55;125367;1099;102898;-79
2022/12/23 08:18:46;;;;;;;57.50;24.40;;;;;;;2.09;82.83;100275.98;126555;1099;102767;-81
2022/12/23 08:21:19;;;;;;;55.20;25.07;;;;;;;2.15;82.73;100274.67;125943;1099;103526;-76
2022/12/23 08:23:51;;;;;;;55.97;23.80;;;;;;;2.19;82.73;100270.59;126485;1099;102013;-78
2022/12/23 08:26:24;;;;;;;55.10;23.47;;;;;;;2.24;82.79;100273.48;126508;1099;102687;-79
2022/12/23 08:28:56;;;;;;;51.55;23.12;;;;;;;2.29;83.20;100272.99;126642;1098;102048;-73
2022/12/23 08:31:30;;;;;;;53.93;22.53;;;;;;;2.38;83.33;100284.73;126656;1098;102600;-74
2022/12/23 08:34:00;;;;;;;;;;;;;;;2.48;82.02;100290.61;126894;1098;102873;-75
2022/12/23 08:36:36;;;;;;;55.57;23.47;;;;;;;2.54;82.13;100274.58;126698;1098;101519;-74
2022/12/23 08:39:19;;;;;;;55.57;24.90;;;;;;;2.62;81.98;100275.06;126797;1099;102134;-74
2022/12/23 08:41:58;;;;;;;60.00;25.20;;;;;;;2.76;83.00;100269.06;126644;1099;102188;-75
2022/12/23 08:44:31;;;;;;;53.03;24.70;;;;;;;2.86;82.18;100271.41;126107;1099;102231;-77
2022/12/23 08:47:03;;;;;;;57.73;25.83;;;;;;;2.94;82.56;100258.93;125697;1102;102893;-77
2022/12/23 08:49:35;;;;;;;51.33;23.90;;;;;;;2.99;82.15;100249.77;124917;1102;102887;-77
2022/12/23 08:52:10;;;;;;;72.47;24.50;;;;;;;3.04;82.67;100252.64;125006;1099;104246;-76
2022/12/23 08:54:42;;;;;;;52.23;23.07;;;;;;;3.09;82.42;100259.00;124922;1098;104272;-78
2022/12/23 08:57:14;;;;;;;47.53;22.07;;;;;;;3.10;82.33;100262.47;124868;1099;103774;-77
2022/12/23 08:59:45;;;;;;;50.80;22.60;;;;;;;3.12;82.78;100243.63;124847;1099;103085;-78
2022/12/23 09:02:19;;;;;;;52.97;22.57;;;;;;;3.13;82.45;100248.02;124878;1099;103159;-76
2022/12/23 09:04:50;;;;;;;48.73;22.73;;;;;;;3.15;82.02;100238.62;124920;1099;104223;-76
2022/12/23 09:07:24;;;;;;;51.07;23.33;;;;;;;3.20;82.03;100236.32;125183;1098;102272;-78
2022/12/23 09:09:56;;;;;;;55.00;24.57;;;;;;;3.18;81.78;100225.86;124864;1099;103655;-81
2022/12/23 09:12:28;;;;;;;52.60;23.63;;;;;;;3.18;81.78;100219.75;125302;1099;104160;-76
2022/12/23 09:14:59;;;;;;;54.60;24.13;;;;;;;3.16;81.86;100221.37;124953;1099;102852;-78
2022/12/23 09:17:33;;;;;;;52.27;23.67;;;;;;;3.13;82.20;100227.28;125367;1099;104242;-79
2022/12/23 09:20:09;;;;;;;56.70;23.80;;;;;;;3.08;81.79;100220.02;125518;1099;103404;-77
2022/12/23 09:22:41;;;;;;;56.40;24.70;;;;;;;3.15;82.10;100225.67;124918;1099;104449;-76
2022/12/23 09:25:13;;;;;;;53.30;22.97;;;;;;;3.22;81.76;100225.22;125274;1099;104182;-76
2022/12/23 09:27:45;;;;;;;53.63;23.57;;;;;;;3.31;81.82;100227.48;125287;1099;104176;-76
2022/12/23 09:30:17;;;;;;;69.83;23.00;;;;;;;3.39;82.00;100215.86;125465;1099;102288;-77
2022/12/23 09:32:49;;;;;;;49.53;23.47;;;;;;;3.52;81.87;100221.78;125213;1099;103076;-76
2022/12/23 09:35:20;;;;;;;55.73;24.73;;;;;;;3.63;81.65;100225.02;125513;1099;104143;-81
2022/12/23 09:37:52;;;;;;;49.77;23.63;;;;;;;3.66;81.63;100226.11;124811;1100;104044;-80
2022/12/23 09:40:24;;;;;;;53.97;24.17;;;;;;;3.68;81.31;100224.48;125156;1099;104178;-77
2022/12/23 09:43:06;;;;;;;52.93;24.30;;;;;;;3.75;81.78;100229.21;125232;1099;104179;-80
2022/12/23 09:45:59;;;;;;;51.83;22.73;;;;;;;3.82;81.68;100221.78;125197;1099;102469;-80
2022/12/23 09:48:36;;;;;;;51.93;24.27;;;;;;;3.85;81.36;100230.67;125023;1099;102603;-79
2022/12/23 09:51:12;;;;;;;54.10;23.90;;;;;;;3.87;81.63;100236.83;125303;1099;103348;-79
2022/12/23 09:53:52;;;;;;;56.20;25.13;;;;;;;3.91;81.96;100238.81;125295;1099;102664;-76
2022/12/23 09:56:34;;;;;;;56.70;23.83;;;;;;;3.93;81.23;100246.69;125481;1099;104274;-75
2022/12/23 09:59:21;;;;;;;58.70;26.43;;;;;;;3.89;80.43;100244.71;125222;1099;104160;-79
2022/12/23 10:02:00;;;;;;;55.47;26.40;;;;;;;3.86;81.10;100234.15;124615;1099;104242;-77
2022/12/23 10:04:37;;;;;;;57.30;26.03;;;;;;;3.92;80.69;100237.98;125258;1099;103494;-79
2022/12/23 10:07:28;;;;;;;53.97;24.93;;;;;;;3.99;81.06;100235.74;125255;1099;102882;-79
2022/12/23 10:10:13;;;;;;;54.67;24.43;;;;;;;4.14;81.62;100226.23;125319;1099;104257;-79
2022/12/23 10:12:49;;;;;;;51.07;23.50;;;;;;;4.26;81.24;100220.86;125281;1098;102948;-78
2022/12/23 10:15:29;;;;;;;51.93;23.93;;;;;;;4.36;81.23;100209.27;125009;1099;104651;-79
2022/12/23 10:18:06;;;;;;;53.60;25.43;;;;;;;4.43;81.43;100204.50;125078;1099;104382;-81
2022/12/23 10:20:47;;;;;;;53.63;24.77;;;;;;;4.50;81.39;100197.94;125194;1099;102722;-80
2022/12/23 10:23:27;;;;;;;52.43;25.13;;;;;;;4.60;81.02;100201.95;125077;1099;104245;-79
2022/12/23 10:26:00;;;;;;;51.17;24.03;;;;;;;4.65;80.83;100195.30;124532;1102;104176;-79
2022/12/23 10:28:34;;;;;;;50.90;23.62;;;;;;;4.73;81.04;100188.80;124903;1099;104246;-78
2022/12/23 10:31:15;;;;;;;52.33;24.90;;;;;;;4.82;80.65;100183.20;124578;1099;103333;-79
2022/12/23 10:33:56;;;;;;;55.53;25.17;;;;;;;4.88;81.13;100180.94;124640;1101;104079;-78
2022/12/23 10:36:39;;;;;;;59.27;26.97;;;;;;;4.92;81.03;100180.27;125051;1098;104284;-80
2022/12/23 10:39:20;;;;;;;58.43;26.47;;;;;;;4.96;80.71;100171.83;125261;1099;102211;-78
2022/12/23 10:42:01;;;;;;;60.10;27.63;;;;;;;4.99;80.78;100171.98;126275;1098;103148;-77
2022/12/23 10:44:50;;;;;;;51.73;25.57;;;;;;;5.03;80.78;100160.03;125205;1098;104219;-78
2022/12/23 10:47:34;;;;;;;52.93;25.17;;;;;;;5.04;80.06;100162.71;124825;1099;104251;-78
2022/12/23 10:50:16;;;;;;;50.90;25.10;;;;;;;5.09;80.71;100162.95;125141;1099;112137;-78
2022/12/23 10:52:52;;;;;;;54.83;25.77;;;;;;;5.15;80.21;100165.87;125370;1098;105273;-76
2022/12/23 10:55:28;;;;;;;52.13;23.97;;;;;;;5.11;79.62;100160.44;125115;1099;104335;-77
2022/12/23 10:58:07;;;;;;;52.37;23.83;;;;;;;5.08;80.37;100158.59;124949;1099;104178;-78
2022/12/23 11:00:41;;;;;;;50.33;24.33;;;;;;;5.12;80.34;100155.31;125339;1099;104317;-79
2022/12/23 11:03:22;;;;;;;53.97;24.60;;;;;;;5.16;80.19;100151.19;124968;1099;104223;-78
2022/12/23 11:05:58;;;;;;;50.03;25.27;;;;;;;5.17;80.49;100140.86;125156;1098;104255;-77
2022/12/23 11:08:33;;;;;;;53.93;25.50;;;;;;;5.19;80.44;100146.14;124852;1102;103062;-77
2022/12/23 11:11:07;;;;;;;53.53;25.63;;;;;;;5.25;80.14;100150.74;125075;1099;104053;-78
2022/12/23 11:13:42;;;;;;;57.30;26.40;;;;;;;5.29;80.17;100137.09;124794;1099;102814;-77
2022/12/23 11:16:22;;;;;;;54.83;25.40;;;;;;;5.32;80.30;100134.64;125029;1099;104195;-76
2022/12/23 11:19:16;;;;;;;59.37;27.43;;;;;;;5.30;79.14;100133.66;124914;1099;104200;-77
2022/12/23 11:21:56;;;;;;;66.47;30.53;;;;;;;5.27;78.79;100130.93;125117;1099;104195;-77
2022/12/23 11:24:31;;;;;;;66.40;31.87;;;;;;;5.25;78.97;100130.84;125401;1099;101951;-77
2022/12/23 11:27:08;;;;;;;73.90;35.87;;;;;;;5.22;78.92;100123.77;125271;1099;104054;-76
2022/12/23 11:29:44;;;;;;;80.60;38.50;;;;;;;5.23;78.98;100132.45;124911;1099;102630;-75
2022/12/23 11:32:22;;;;;;;74.07;33.43;;;;;;;5.26;78.34;100136.94;125123;1099;104264;-76
2022/12/23 11:34:56;;;;;;;75.23;34.57;;;;;;;5.28;78.79;100133.58;125195;1099;104409;-75
2022/12/23 11:37:43;;;;;;;80.80;36.85;;;;;;;5.32;79.40;100140.73;124927;1099;102383;-75
2022/12/23 11:40:38;;;;;;;71.50;33.47;;;;;;;5.36;78.58;100139.17;126753;1098;101928;-78
2022/12/23 11:43:17;;;;;;;73.85;34.80;;;;;;;5.31;77.71;100144.14;126791;1098;102272;-76
2022/12/23 11:46:10;;;;;;;78.47;36.60;;;;;;;5.29;77.50;100150.98;126802;1099;101964;-77
2022/12/23 11:48:42;;;;;;;75.50;34.70;;;;;;;5.25;77.12;100149.06;125026;1102;103563;-77
2022/12/23 11:51:13;;;;;;;76.17;36.53;;;;;;;5.20;77.61;100150.51;125054;1099;102612;-78
2022/12/23 11:53:50;;;;;;;81.67;35.78;;;;;;;5.19;77.60;100154.83;125222;1098;102369;-77
2022/12/23 11:56:24;;;;;;;72.10;35.90;;;;;;;5.18;77.57;100162.55;125112;1099;104321;-78
2022/12/23 11:59:03;;;;;;;76.75;36.23;;;;;;;5.20;77.91;100150.51;125162;1099;102378;-78
2022/12/23 12:01:48;;;;;;;79.13;35.97;;;;;;;5.21;77.72;100145.39;125195;1099;104129;-78